Terminal Aerodrome Forecast
Issued by NWS Denver/Boulder, CO

Home | Current Version | Previous Version | Text Only | Print | Product List | Glossary On
Versions: 1 2 3 4 5 6 7 8 9 10 11 12 13 14 15 16 17 18 19 20 21 22 23 24 25 26 27 28 29 30 31 32 33 34 35 36 37 38 39 40 41 42 43 44 45 46 47 48 49 50
000
FTUS45 KBOU 011127
TAFDEN
TAF
KDEN 011127Z 0112/0218 21014KT P6SM FEW140 BKN250
     FM011400 24010KT P6SM SCT120 BKN200
     FM011700 28008KT P6SM SCT100 BKN180
     FM012200 02010KT P6SM BKN080 BKN150 PROB30 0122/0202 VRB15G30KT
      5SM -TSRA BKN060CB
     FM020300 01012KT P6SM VCSH SCT080 BKN160
     FM020800 06010KT P6SM SCT015 OVC040
     FM021500 05010KT 5SM -SHRASN BR SCT010 OVC020=

USA.gov is the U.S. government's official web portal to all federal, state and local government web resources and services.